Anangel Excellence — 9HA4265 — position and weather

sailwx.info

Track history (hours):
 
Tides and Currents Weather Stations Pressure Air Temp Water Temp Dewpoint Dewpoint Depression Visibility Wind Speed Wind Dir Waves Ship Positions

Anangel Excellence

Last reported at 2017-Nov-19 04:27 UTC. Time now 2017-Nov-20 00:25 UTC.
Position N 28°30' W 014°46'.

Length 292 m; draft 16.2 m.

Type: Cargo ship. MMSI: 249495000.

Date/timePositionNaut miles runAvg speedWind from/ knotsBaromVisibWave heightAir tempDewpointWater temp
2017-Nov-19 04:27N 28°30' W 014°46'511.5
2017-Nov-19 04:00N 28°25' W 014°47'611.7
2017-Nov-19 03:30N 28°19' W 014°49'611.6
2017-Nov-19 03:00N 28°14' W 014°51'612.0
2017-Nov-19 02:30N 28°08' W 014°54'612.2
2017-Nov-19 02:00N 28°03' W 014°56'612.0
2017-Nov-19 01:30N 27°57' W 014°58'612.0
2017-Nov-19 01:00N 27°51' W 015°01'612.2
2017-Nov-19 00:30N 27°46' W 015°03'612.3
2017-Nov-19 00:00N 27°40' W 015°05'611.9
2017-Nov-18 23:29N 27°34' W 015°08'  
2017-Nov-12 04:47N 25°17' W 015°48'414.8
2017-Nov-12 04:30N 25°20' W 015°45'7814.4
2017-Nov-11 23:05N 26°25' W 014°56'514.1
2017-Nov-11 22:43N 26°29' W 014°53'314.0
2017-Nov-11 22:28N 26°31' W 014°51'714.0
2017-Nov-11 22:00N 26°37' W 014°46'714.0
2017-Nov-11 21:31N 26°42' W 014°42'713.9
2017-Nov-11 21:00N 26°48' W 014°37'713.9
2017-Nov-11 20:30N 26°54' W 014°33'714.0
2017-Nov-11 20:00N 26°60' W 014°29'714.2
2017-Nov-11 19:30N 27°06' W 014°24'714.4
2017-Nov-11 19:00N 27°12' W 014°20'714.3
2017-Nov-11 18:30N 27°17' W 014°15'714.1
2017-Nov-11 18:00N 27°23' W 014°10'714.3
2017-Nov-11 17:30N 27°29' W 014°06'714.8
2017-Nov-11 17:01N 27°35' W 014°01'815.2
2017-Nov-11 16:30N 27°41' W 013°56'714.8
2017-Nov-11 16:00N 27°47' W 013°51'714.8
2017-Nov-11 15:30N 27°54' W 013°47'714.9
2017-Nov-11 15:00N 27°60' W 013°42'1014.4
2017-Nov-11 14:21N 28°07' W 013°36'514.2
2017-Nov-11 14:00N 28°11' W 013°32'714.0
2017-Nov-11 13:30N 28°17' W 013°28'713.9
2017-Nov-11 13:00N 28°23' W 013°23'713.8
2017-Nov-11 12:30N 28°29' W 013°19'714.0
2017-Nov-11 12:00N 28°34' W 013°14'714.0
2017-Nov-11 11:29N 28°40' W 013°10'714.1
2017-Nov-11 11:01N 28°46' W 013°05'714.0
2017-Nov-11 10:30N 28°52' W 013°01'713.5
2017-Nov-11 10:00N 28°57' W 012°56'713.1
2017-Nov-11 09:30N 29°03' W 012°52'713.2
2017-Nov-11 09:00N 29°08' W 012°48'713.3
2017-Nov-11 08:30N 29°13' W 012°43'713.4
2017-Nov-11 08:00N 29°19' W 012°39'713.6
2017-Nov-11 07:30N 29°25' W 012°35'1713.8
2017-Nov-11 06:16N 29°39' W 012°24'2513.9
2017-Nov-11 04:27N 29°59' W 012°07'813.9
2017-Nov-11 03:51N 30°06' W 012°01'513.8
2017-Nov-11 03:27N 30°11' W 011°58'713.8
2017-Nov-11 02:59N 30°16' W 011°53'713.6
2017-Nov-11 02:30N 30°22' W 011°49'913.6
2017-Nov-11 01:48N 30°29' W 011°43'413.8
2017-Nov-11 01:30N 30°33' W 011°40'713.9
2017-Nov-11 01:01N 30°38' W 011°36'4314.2
2017-Nov-10 22:01N 31°13' W 011°07'014.5
2017-Nov-10 21:59N 31°14' W 011°07'714.4
2017-Nov-10 21:29N 31°20' W 011°02'714.3
2017-Nov-10 21:00N 31°25' W 010°58'713.9
2017-Nov-10 20:30N 31°31' W 010°53'1914.0
2017-Nov-10 19:07N 31°47' W 010°40'213.9
2017-Nov-10 18:58N 31°49' W 010°38'  
Track history (hours):
 
Tides and Currents Weather Stations Pressure Air Temp Water Temp Dewpoint Dewpoint Depression Visibility Wind Speed Wind Dir Waves Ship Positions

Anangel Excellence

Last reported at 2017-Nov-19 04:27 UTC. Time now 2017-Nov-20 00:25 UTC.
Position N 28°30' W 014°46'.

Length 292 m; draft 16.2 m.

Type: Cargo ship. MMSI: 249495000.

Date/timePositionNaut miles runAvg speedWind from/ knotsBaromVisibWave heightAir tempDewpointWater temp
2017-Nov-19 04:27N 28°30' W 014°46'511.5
2017-Nov-19 04:00N 28°25' W 014°47'611.7
2017-Nov-19 03:30N 28°19' W 014°49'611.6
2017-Nov-19 03:00N 28°14' W 014°51'612.0
2017-Nov-19 02:30N 28°08' W 014°54'612.2
2017-Nov-19 02:00N 28°03' W 014°56'612.0
2017-Nov-19 01:30N 27°57' W 014°58'612.0
2017-Nov-19 01:00N 27°51' W 015°01'612.2
2017-Nov-19 00:30N 27°46' W 015°03'612.3
2017-Nov-19 00:00N 27°40' W 015°05'611.9
2017-Nov-18 23:29N 27°34' W 015°08'  
2017-Nov-12 04:47N 25°17' W 015°48'414.8
2017-Nov-12 04:30N 25°20' W 015°45'7814.4
2017-Nov-11 23:05N 26°25' W 014°56'514.1
2017-Nov-11 22:43N 26°29' W 014°53'314.0
2017-Nov-11 22:28N 26°31' W 014°51'714.0
2017-Nov-11 22:00N 26°37' W 014°46'714.0
2017-Nov-11 21:31N 26°42' W 014°42'713.9
2017-Nov-11 21:00N 26°48' W 014°37'713.9
2017-Nov-11 20:30N 26°54' W 014°33'714.0
2017-Nov-11 20:00N 26°60' W 014°29'714.2
2017-Nov-11 19:30N 27°06' W 014°24'714.4
2017-Nov-11 19:00N 27°12' W 014°20'714.3
2017-Nov-11 18:30N 27°17' W 014°15'714.1
2017-Nov-11 18:00N 27°23' W 014°10'714.3
2017-Nov-11 17:30N 27°29' W 014°06'714.8
2017-Nov-11 17:01N 27°35' W 014°01'815.2
2017-Nov-11 16:30N 27°41' W 013°56'714.8
2017-Nov-11 16:00N 27°47' W 013°51'714.8
2017-Nov-11 15:30N 27°54' W 013°47'714.9
2017-Nov-11 15:00N 27°60' W 013°42'1014.4
2017-Nov-11 14:21N 28°07' W 013°36'514.2
2017-Nov-11 14:00N 28°11' W 013°32'714.0
2017-Nov-11 13:30N 28°17' W 013°28'713.9
2017-Nov-11 13:00N 28°23' W 013°23'713.8
2017-Nov-11 12:30N 28°29' W 013°19'714.0
2017-Nov-11 12:00N 28°34' W 013°14'714.0
2017-Nov-11 11:29N 28°40' W 013°10'714.1
2017-Nov-11 11:01N 28°46' W 013°05'714.0
2017-Nov-11 10:30N 28°52' W 013°01'713.5
2017-Nov-11 10:00N 28°57' W 012°56'713.1
2017-Nov-11 09:30N 29°03' W 012°52'713.2
2017-Nov-11 09:00N 29°08' W 012°48'713.3
2017-Nov-11 08:30N 29°13' W 012°43'713.4
2017-Nov-11 08:00N 29°19' W 012°39'713.6
2017-Nov-11 07:30N 29°25' W 012°35'1713.8
2017-Nov-11 06:16N 29°39' W 012°24'2513.9
2017-Nov-11 04:27N 29°59' W 012°07'813.9
2017-Nov-11 03:51N 30°06' W 012°01'513.8
2017-Nov-11 03:27N 30°11' W 011°58'713.8
2017-Nov-11 02:59N 30°16' W 011°53'713.6
2017-Nov-11 02:30N 30°22' W 011°49'913.6
2017-Nov-11 01:48N 30°29' W 011°43'413.8
2017-Nov-11 01:30N 30°33' W 011°40'713.9
2017-Nov-11 01:01N 30°38' W 011°36'4314.2
2017-Nov-10 22:01N 31°13' W 011°07'014.5
2017-Nov-10 21:59N 31°14' W 011°07'714.4
2017-Nov-10 21:29N 31°20' W 011°02'714.3
2017-Nov-10 21:00N 31°25' W 010°58'713.9
2017-Nov-10 20:30N 31°31' W 010°53'1914.0
2017-Nov-10 19:07N 31°47' W 010°40'213.9
2017-Nov-10 18:58N 31°49' W 010°38'  

Dump ship's entire track history